sensor_id;sensor_type;location;lat;lon;timestamp;temperature;humidity
29201;DHT22;16244;51.956;12.980;2024-03-17T00:00:12;3.10;99.90
29201;DHT22;16244;51.956;12.980;2024-03-17T00:02:41;3.00;99.90
29201;DHT22;16244;51.956;12.980;2024-03-17T00:05:11;3.00;99.90
29201;DHT22;16244;51.956;12.980;2024-03-17T00:07:37;3.00;99.90
29201;DHT22;16244;51.956;12.980;2024-03-17T00:10:07;3.00;99.90
29201;DHT22;16244;51.956;12.980;2024-03-17T00:12:34;3.00;99.90
29201;DHT22;16244;51.956;12.980;2024-03-17T00:15:02;3.00;99.90
29201;DHT22;16244;51.956;12.980;2024-03-17T00:17:28;2.90;99.90
29201;DHT22;16244;51.956;12.980;2024-03-17T00:19:56;2.90;99.90
29201;DHT22;16244;51.956;12.980;2024-03-17T00:22:23;2.90;99.90
29201;DHT22;16244;51.956;12.980;2024-03-17T00:24:50;2.90;99.90
29201;DHT22;16244;51.956;12.980;2024-03-17T00:27:19;2.90;99.90
29201;DHT22;16244;51.956;12.980;2024-03-17T00:29:47;2.80;99.90
29201;DHT22;16244;51.956;12.980;2024-03-17T00:32:15;2.80;99.90
29201;DHT22;16244;51.956;12.980;2024-03-17T00:34:45;2.90;99.90
29201;DHT22;16244;51.956;12.980;2024-03-17T00:37:12;2.80;99.90
29201;DHT22;16244;51.956;12.980;2024-03-17T00:39:40;2.70;99.90
29201;DHT22;16244;51.956;12.980;2024-03-17T00:42:07;2.70;99.90
29201;DHT22;16244;51.956;12.980;2024-03-17T00:44:36;2.70;99.90
29201;DHT22;16244;51.956;12.980;2024-03-17T00:47:02;2.60;99.90
29201;DHT22;16244;51.956;12.980;2024-03-17T00:49:31;2.60;99.90
29201;DHT22;16244;51.956;12.980;2024-03-17T00:51:58;2.70;99.90
29201;DHT22;16244;51.956;12.980;2024-03-17T00:54:25;2.60;99.90
29201;DHT22;16244;51.956;12.980;2024-03-17T00:56:53;2.50;99.90
29201;DHT22;16244;51.956;12.980;2024-03-17T00:59:20;2.50;99.90
29201;DHT22;16244;51.956;12.980;2024-03-17T01:01:48;2.50;99.90
29201;DHT22;16244;51.956;12.980;2024-03-17T01:04:15;2.50;99.90
29201;DHT22;16244;51.956;12.980;2024-03-17T01:06:42;2.50;99.90
29201;DHT22;16244;51.956;12.980;2024-03-17T01:09:10;2.40;99.90
29201;DHT22;16244;51.956;12.980;2024-03-17T01:11:37;2.40;99.90
29201;DHT22;16244;51.956;12.980;2024-03-17T01:14:05;2.40;99.90
29201;DHT22;16244;51.956;12.980;2024-03-17T01:16:31;2.40;99.90
29201;DHT22;16244;51.956;12.980;2024-03-17T01:19:00;2.40;99.90
29201;DHT22;16244;51.956;12.980;2024-03-17T01:21:27;2.40;99.90
29201;DHT22;16244;51.956;12.980;2024-03-17T01:23:55;2.40;99.90
29201;DHT22;16244;51.956;12.980;2024-03-17T01:26:23;2.30;99.90
29201;DHT22;16244;51.956;12.980;2024-03-17T01:28:51;2.30;99.90
29201;DHT22;16244;51.956;12.980;2024-03-17T01:31:18;2.20;99.90
29201;DHT22;16244;51.956;12.980;2024-03-17T01:33:45;2.30;99.90
29201;DHT22;16244;51.956;12.980;2024-03-17T01:36:14;2.30;99.90
29201;DHT22;16244;51.956;12.980;2024-03-17T01:38:40;2.30;99.90
29201;DHT22;16244;51.956;12.980;2024-03-17T01:41:08;2.20;99.90
29201;DHT22;16244;51.956;12.980;2024-03-17T01:43:35;2.20;99.90
29201;DHT22;16244;51.956;12.980;2024-03-17T01:46:02;2.10;99.90
29201;DHT22;16244;51.956;12.980;2024-03-17T01:48:29;2.10;99.90
29201;DHT22;16244;51.956;12.980;2024-03-17T01:50:57;2.10;99.90
29201;DHT22;16244;51.956;12.980;2024-03-17T01:53:25;2.10;99.90
29201;DHT22;16244;51.956;12.980;2024-03-17T01:55:58;2.10;99.90
29201;DHT22;16244;51.956;12.980;2024-03-17T01:58:30;2.10;99.90
29201;DHT22;16244;51.956;12.980;2024-03-17T02:01:02;2.10;99.90
29201;DHT22;16244;51.956;12.980;2024-03-17T02:03:30;2.10;99.90
29201;DHT22;16244;51.956;12.980;2024-03-17T02:05:58;2.10;99.90
29201;DHT22;16244;51.956;12.980;2024-03-17T02:08:26;2.00;99.90
29201;DHT22;16244;51.956;12.980;2024-03-17T02:10:54;2.00;99.90
29201;DHT22;16244;51.956;12.980;2024-03-17T02:13:20;2.00;99.90
29201;DHT22;16244;51.956;12.980;2024-03-17T02:15:50;2.10;99.90
29201;DHT22;16244;51.956;12.980;2024-03-17T02:18:18;2.00;99.90
29201;DHT22;16244;51.956;12.980;2024-03-17T02:20:45;2.10;99.90
29201;DHT22;16244;51.956;12.980;2024-03-17T02:23:27;2.10;99.90
29201;DHT22;16244;51.956;12.980;2024-03-17T02:25:55;2.10;99.90
29201;DHT22;16244;51.956;12.980;2024-03-17T02:28:21;2.10;99.90
29201;DHT22;16244;51.956;12.980;2024-03-17T02:30:49;2.10;99.90
29201;DHT22;16244;51.956;12.980;2024-03-17T02:33:17;2.20;99.90
29201;DHT22;16244;51.956;12.980;2024-03-17T02:35:45;2.20;99.90
29201;DHT22;16244;51.956;12.980;2024-03-17T02:38:15;2.20;99.90
29201;DHT22;16244;51.956;12.980;2024-03-17T02:41:05;2.10;99.90
29201;DHT22;16244;51.956;12.980;2024-03-17T02:43:33;2.10;99.90
29201;DHT22;16244;51.956;12.980;2024-03-17T02:46:02;2.00;99.90
29201;DHT22;16244;51.956;12.980;2024-03-17T02:48:32;2.10;99.90
29201;DHT22;16244;51.956;12.980;2024-03-17T02:50:59;2.00;99.90
29201;DHT22;16244;51.956;12.980;2024-03-17T02:53:27;2.00;99.90
29201;DHT22;16244;51.956;12.980;2024-03-17T02:55:56;2.00;99.90
29201;DHT22;16244;51.956;12.980;2024-03-17T02:58:25;2.00;99.90
29201;DHT22;16244;51.956;12.980;2024-03-17T03:00:54;2.00;99.90
29201;DHT22;16244;51.956;12.980;2024-03-17T03:03:21;2.00;99.90
29201;DHT22;16244;51.956;12.980;2024-03-17T03:05:49;2.00;99.90
29201;DHT22;16244;51.956;12.980;2024-03-17T03:08:16;1.90;99.90
29201;DHT22;16244;51.956;12.980;2024-03-17T03:10:45;1.90;99.90
29201;DHT22;16244;51.956;12.980;2024-03-17T03:13:13;1.90;99.90
29201;DHT22;16244;51.956;12.980;2024-03-17T03:15:42;1.80;99.90
29201;DHT22;16244;51.956;12.980;2024-03-17T03:18:10;1.90;99.90
29201;DHT22;16244;51.956;12.980;2024-03-17T03:20:38;1.90;99.90
29201;DHT22;16244;51.956;12.980;2024-03-17T03:23:05;1.80;99.90
29201;DHT22;16244;51.956;12.980;2024-03-17T03:25:33;1.80;99.90
29201;DHT22;16244;51.956;12.980;2024-03-17T03:28:00;1.80;99.90
29201;DHT22;16244;51.956;12.980;2024-03-17T03:30:29;1.80;99.90
29201;DHT22;16244;51.956;12.980;2024-03-17T03:32:57;1.80;99.90
29201;DHT22;16244;51.956;12.980;2024-03-17T03:35:28;1.80;99.90
29201;DHT22;16244;51.956;12.980;2024-03-17T03:37:56;1.80;99.90
29201;DHT22;16244;51.956;12.980;2024-03-17T03:40:23;1.80;99.90
29201;DHT22;16244;51.956;12.980;2024-03-17T03:42:53;1.70;99.90
29201;DHT22;16244;51.956;12.980;2024-03-17T03:45:21;1.70;99.90
29201;DHT22;16244;51.956;12.980;2024-03-17T03:47:49;1.70;99.90
29201;DHT22;16244;51.956;12.980;2024-03-17T03:50:22;1.60;99.90
29201;DHT22;16244;51.956;12.980;2024-03-17T03:52:50;1.60;99.90
29201;DHT22;16244;51.956;12.980;2024-03-17T03:55:19;1.50;99.90
29201;DHT22;16244;51.956;12.980;2024-03-17T03:57:46;1.60;99.90
29201;DHT22;16244;51.956;12.980;2024-03-17T04:00:17;1.60;99.90
29201;DHT22;16244;51.956;12.980;2024-03-17T04:02:49;1.50;99.90
29201;DHT22;16244;51.956;12.980;2024-03-17T04:05:17;1.50;99.90
29201;DHT22;16244;51.956;12.980;2024-03-17T04:07:47;1.50;99.90
29201;DHT22;16244;51.956;12.980;2024-03-17T04:10:15;1.50;99.90
29201;DHT22;16244;51.956;12.980;2024-03-17T04:12:45;1.60;99.90
29201;DHT22;16244;51.956;12.980;2024-03-17T04:15:15;1.50;99.90
29201;DHT22;16244;51.956;12.980;2024-03-17T04:17:47;1.60;99.90
29201;DHT22;16244;51.956;12.980;2024-03-17T04:20:14;1.60;99.90
29201;DHT22;16244;51.956;12.980;2024-03-17T04:22:42;1.60;99.90
29201;DHT22;16244;51.956;12.980;2024-03-17T04:25:12;1.50;99.90
29201;DHT22;16244;51.956;12.980;2024-03-17T04:27:40;1.60;99.90
29201;DHT22;16244;51.956;12.980;2024-03-17T04:30:09;1.60;99.90
29201;DHT22;16244;51.956;12.980;2024-03-17T04:32:39;1.60;99.90
29201;DHT22;16244;51.956;12.980;2024-03-17T04:35:09;1.60;99.90
29201;DHT22;16244;51.956;12.980;2024-03-17T04:37:37;1.60;99.90
29201;DHT22;16244;51.956;12.980;2024-03-17T04:40:07;1.60;99.90
29201;DHT22;16244;51.956;12.980;2024-03-17T04:42:39;1.60;99.90
29201;DHT22;16244;51.956;12.980;2024-03-17T04:45:08;1.50;99.90
29201;DHT22;16244;51.956;12.980;2024-03-17T04:47:36;1.60;99.90
29201;DHT22;16244;51.956;12.980;2024-03-17T04:50:05;1.50;99.90
29201;DHT22;16244;51.956;12.980;2024-03-17T04:52:33;1.50;99.90
29201;DHT22;16244;51.956;12.980;2024-03-17T04:55:00;1.60;99.90
29201;DHT22;16244;51.956;12.980;2024-03-17T04:57:30;1.50;99.90
29201;DHT22;16244;51.956;12.980;2024-03-17T04:59:59;1.50;99.90
29201;DHT22;16244;51.956;12.980;2024-03-17T05:02:29;1.50;99.90
29201;DHT22;16244;51.956;12.980;2024-03-17T05:04:58;1.50;99.90
29201;DHT22;16244;51.956;12.980;2024-03-17T05:07:26;1.50;99.90
29201;DHT22;16244;51.956;12.980;2024-03-17T05:09:54;1.50;99.90
29201;DHT22;16244;51.956;12.980;2024-03-17T05:12:22;1.50;99.90
29201;DHT22;16244;51.956;12.980;2024-03-17T05:14:49;1.40;99.90
29201;DHT22;16244;51.956;12.980;2024-03-17T05:17:18;1.40;99.90
29201;DHT22;16244;51.956;12.980;2024-03-17T05:19:45;1.30;99.90
29201;DHT22;16244;51.956;12.980;2024-03-17T05:22:13;1.30;99.90
29201;DHT22;16244;51.956;12.980;2024-03-17T05:24:40;1.30;99.90
29201;DHT22;16244;51.956;12.980;2024-03-17T05:27:08;1.30;99.90
29201;DHT22;16244;51.956;12.980;2024-03-17T05:29:35;1.20;99.90
29201;DHT22;16244;51.956;12.980;2024-03-17T05:32:04;1.20;99.90
29201;DHT22;16244;51.956;12.980;2024-03-17T05:34:33;1.30;99.90
29201;DHT22;16244;51.956;12.980;2024-03-17T05:37:00;1.30;99.90
29201;DHT22;16244;51.956;12.980;2024-03-17T05:39:28;1.30;99.90
29201;DHT22;16244;51.956;12.980;2024-03-17T05:41:56;1.30;99.90
29201;DHT22;16244;51.956;12.980;2024-03-17T05:44:24;1.30;99.90
29201;DHT22;16244;51.956;12.980;2024-03-17T05:46:51;1.20;99.90
29201;DHT22;16244;51.956;12.980;2024-03-17T05:49:20;1.30;99.90
29201;DHT22;16244;51.956;12.980;2024-03-17T05:51:49;1.30;99.90
29201;DHT22;16244;51.956;12.980;2024-03-17T05:54:17;1.30;99.90
29201;DHT22;16244;51.956;12.980;2024-03-17T05:56:44;1.30;99.90
29201;DHT22;16244;51.956;12.980;2024-03-17T05:59:12;1.40;99.90
29201;DHT22;16244;51.956;12.980;2024-03-17T06:01:42;1.40;99.90
29201;DHT22;16244;51.956;12.980;2024-03-17T06:04:09;1.40;99.90
29201;DHT22;16244;51.956;12.980;2024-03-17T06:06:37;1.50;99.90
29201;DHT22;16244;51.956;12.980;2024-03-17T06:09:06;1.50;99.90
29201;DHT22;16244;51.956;12.980;2024-03-17T06:11:36;1.60;99.90
29201;DHT22;16244;51.956;12.980;2024-03-17T06:14:03;1.70;99.90
29201;DHT22;16244;51.956;12.980;2024-03-17T06:16:37;1.70;99.90
29201;DHT22;16244;51.956;12.980;2024-03-17T06:19:05;1.80;99.90
29201;DHT22;16244;51.956;12.980;2024-03-17T06:21:33;1.90;99.90
29201;DHT22;16244;51.956;12.980;2024-03-17T06:24:01;2.10;99.90
29201;DHT22;16244;51.956;12.980;2024-03-17T06:26:29;2.10;99.90
29201;DHT22;16244;51.956;12.980;2024-03-17T06:29:00;2.20;99.90
29201;DHT22;16244;51.956;12.980;2024-03-17T06:31:29;2.30;99.90
29201;DHT22;16244;51.956;12.980;2024-03-17T06:33:58;2.40;99.90
29201;DHT22;16244;51.956;12.980;2024-03-17T06:36:25;2.40;99.90
29201;DHT22;16244;51.956;12.980;2024-03-17T06:38:53;2.50;99.90
29201;DHT22;16244;51.956;12.980;2024-03-17T06:41:21;2.70;99.90
29201;DHT22;16244;51.956;12.980;2024-03-17T06:43:50;2.80;99.90
29201;DHT22;16244;51.956;12.980;2024-03-17T06:46:17;3.00;99.90
29201;DHT22;16244;51.956;12.980;2024-03-17T06:48:44;3.20;99.90
29201;DHT22;16244;51.956;12.980;2024-03-17T06:51:12;3.40;99.90
29201;DHT22;16244;51.956;12.980;2024-03-17T06:53:39;3.60;99.90
29201;DHT22;16244;51.956;12.980;2024-03-17T06:56:07;3.70;99.90
29201;DHT22;16244;51.956;12.980;2024-03-17T06:58:35;3.90;99.90
29201;DHT22;16244;51.956;12.980;2024-03-17T07:01:04;4.20;99.90
29201;DHT22;16244;51.956;12.980;2024-03-17T07:03:32;4.40;99.90
29201;DHT22;16244;51.956;12.980;2024-03-17T07:06:01;4.80;99.90
29201;DHT22;16244;51.956;12.980;2024-03-17T07:08:30;5.20;99.90
29201;DHT22;16244;51.956;12.980;2024-03-17T07:10:59;5.50;99.90
29201;DHT22;16244;51.956;12.980;2024-03-17T07:13:30;5.70;99.90
29201;DHT22;16244;51.956;12.980;2024-03-17T07:15:58;6.00;99.90
29201;DHT22;16244;51.956;12.980;2024-03-17T07:18:27;6.30;99.90
29201;DHT22;16244;51.956;12.980;2024-03-17T07:20:56;6.50;99.90
29201;DHT22;16244;51.956;12.980;2024-03-17T07:23:24;6.70;99.90
29201;DHT22;16244;51.956;12.980;2024-03-17T07:25:53;7.00;99.90
29201;DHT22;16244;51.956;12.980;2024-03-17T07:28:23;7.20;99.90
29201;DHT22;16244;51.956;12.980;2024-03-17T07:31:01;7.60;99.90
29201;DHT22;16244;51.956;12.980;2024-03-17T07:33:30;7.80;99.90
29201;DHT22;16244;51.956;12.980;2024-03-17T07:35:58;8.00;99.30
29201;DHT22;16244;51.956;12.980;2024-03-17T07:38:27;8.10;98.50
29201;DHT22;16244;51.956;12.980;2024-03-17T07:40:57;8.20;97.00
29201;DHT22;16244;51.956;12.980;2024-03-17T07:43:26;8.40;96.30
29201;DHT22;16244;51.956;12.980;2024-03-17T07:45:58;8.70;96.50
29201;DHT22;16244;51.956;12.980;2024-03-17T07:48:24;8.80;95.10
29201;DHT22;16244;51.956;12.980;2024-03-17T07:50:57;8.60;93.00
29201;DHT22;16244;51.956;12.980;2024-03-17T07:53:27;8.60;94.70
29201;DHT22;16244;51.956;12.980;2024-03-17T07:55:58;8.80;93.00
29201;DHT22;16244;51.956;12.980;2024-03-17T07:58:30;8.90;90.90
29201;DHT22;16244;51.956;12.980;2024-03-17T08:01:00;8.60;91.60
29201;DHT22;16244;51.956;12.980;2024-03-17T08:03:29;9.00;90.80
29201;DHT22;16244;51.956;12.980;2024-03-17T08:05:59;8.90;90.90
29201;DHT22;16244;51.956;12.980;2024-03-17T08:08:27;9.10;91.20
29201;DHT22;16244;51.956;12.980;2024-03-17T08:10:54;9.10;89.60
29201;DHT22;16244;51.956;12.980;2024-03-17T08:13:22;8.60;89.40
29201;DHT22;16244;51.956;12.980;2024-03-17T08:15:56;8.70;91.40
29201;DHT22;16244;51.956;12.980;2024-03-17T08:18:25;9.30;85.60
29201;DHT22;16244;51.956;12.980;2024-03-17T08:20:54;9.90;83.70
29201;DHT22;16244;51.956;12.980;2024-03-17T08:23:23;9.80;80.50
29201;DHT22;16244;51.956;12.980;2024-03-17T08:25:53;9.80;83.00
29201;DHT22;16244;51.956;12.980;2024-03-17T08:28:21;9.80;79.90
29201;DHT22;16244;51.956;12.980;2024-03-17T08:30:52;10.10;79.00
29201;DHT22;16244;51.956;12.980;2024-03-17T08:33:20;10.50;76.50
29201;DHT22;16244;51.956;12.980;2024-03-17T08:35:55;10.40;74.10
29201;DHT22;16244;51.956;12.980;2024-03-17T08:38:27;10.60;77.40
29201;DHT22;16244;51.956;12.980;2024-03-17T08:40:56;11.20;75.70
29201;DHT22;16244;51.956;12.980;2024-03-17T08:43:24;11.30;68.50
29201;DHT22;16244;51.956;12.980;2024-03-17T08:45:55;11.50;74.60
29201;DHT22;16244;51.956;12.980;2024-03-17T08:48:25;12.20;71.70
29201;DHT22;16244;51.956;12.980;2024-03-17T08:50:53;12.00;66.00
29201;DHT22;16244;51.956;12.980;2024-03-17T08:53:21;11.40;67.20
29201;DHT22;16244;51.956;12.980;2024-03-17T08:55:51;10.60;68.70
29201;DHT22;16244;51.956;12.980;2024-03-17T08:58:19;10.10;73.50
29201;DHT22;16244;51.956;12.980;2024-03-17T09:00:48;10.90;70.70
29201;DHT22;16244;51.956;12.980;2024-03-17T09:03:17;11.30;70.80
29201;DHT22;16244;51.956;12.980;2024-03-17T09:05:47;11.80;67.90
29201;DHT22;16244;51.956;12.980;2024-03-17T09:08:16;11.80;64.50
29201;DHT22;16244;51.956;12.980;2024-03-17T09:10:47;11.20;67.10
29201;DHT22;16244;51.956;12.980;2024-03-17T09:13:17;11.00;66.60
29201;DHT22;16244;51.956;12.980;2024-03-17T09:15:51;11.40;63.80
29201;DHT22;16244;51.956;12.980;2024-03-17T09:18:19;12.40;66.10
29201;DHT22;16244;51.956;12.980;2024-03-17T09:20:58;12.80;60.50
29201;DHT22;16244;51.956;12.980;2024-03-17T09:23:27;13.60;60.80
29201;DHT22;16244;51.956;12.980;2024-03-17T09:25:57;14.40;54.60
29201;DHT22;16244;51.956;12.980;2024-03-17T09:28:27;13.90;54.60
29201;DHT22;16244;51.956;12.980;2024-03-17T09:30:55;13.60;56.60
29201;DHT22;16244;51.956;12.980;2024-03-17T09:33:24;14.20;55.40
29201;DHT22;16244;51.956;12.980;2024-03-17T09:35:55;14.10;51.80
29201;DHT22;16244;51.956;12.980;2024-03-17T09:38:25;14.60;52.80
29201;DHT22;16244;51.956;12.980;2024-03-17T09:40:57;15.00;51.50
29201;DHT22;16244;51.956;12.980;2024-03-17T09:43:29;15.30;47.90
29201;DHT22;16244;51.956;12.980;2024-03-17T09:45:57;12.90;52.80
29201;DHT22;16244;51.956;12.980;2024-03-17T09:48:26;11.80;58.80
29201;DHT22;16244;51.956;12.980;2024-03-17T09:50:56;12.00;61.60
29201;DHT22;16244;51.956;12.980;2024-03-17T09:53:25;12.80;55.20
29201;DHT22;16244;51.956;12.980;2024-03-17T09:55:57;12.80;53.70
29201;DHT22;16244;51.956;12.980;2024-03-17T09:58:25;12.20;56.20
29201;DHT22;16244;51.956;12.980;2024-03-17T10:00:53;10.70;58.00
29201;DHT22;16244;51.956;12.980;2024-03-17T10:03:41;9.50;62.40
29201;DHT22;16244;51.956;12.980;2024-03-17T10:06:09;8.90;65.10
29201;DHT22;16244;51.956;12.980;2024-03-17T10:08:42;8.50;67.10
29201;DHT22;16244;51.956;12.980;2024-03-17T10:11:10;9.00;68.50
29201;DHT22;16244;51.956;12.980;2024-03-17T10:13:37;10.30;64.80
29201;DHT22;16244;51.956;12.980;2024-03-17T10:16:06;10.60;60.70
29201;DHT22;16244;51.956;12.980;2024-03-17T10:18:34;10.80;64.10
29201;DHT22;16244;51.956;12.980;2024-03-17T10:21:01;11.20;60.00
29201;DHT22;16244;51.956;12.980;2024-03-17T10:23:32;10.40;60.40
29201;DHT22;16244;51.956;12.980;2024-03-17T10:26:12;9.60;64.60
29201;DHT22;16244;51.956;12.980;2024-03-17T10:28:44;10.40;60.30
29201;DHT22;16244;51.956;12.980;2024-03-17T10:31:13;11.80;56.80
29201;DHT22;16244;51.956;12.980;2024-03-17T10:33:40;12.40;53.50
29201;DHT22;16244;51.956;12.980;2024-03-17T10:36:17;12.00;57.10
29201;DHT22;16244;51.956;12.980;2024-03-17T10:38:51;11.90;56.80
29201;DHT22;16244;51.956;12.980;2024-03-17T10:41:19;11.50;56.10
29201;DHT22;16244;51.956;12.980;2024-03-17T10:43:48;11.10;58.30
29201;DHT22;16244;51.956;12.980;2024-03-17T10:46:18;10.50;58.70
29201;DHT22;16244;51.956;12.980;2024-03-17T10:48:48;10.10;58.90
29201;DHT22;16244;51.956;12.980;2024-03-17T10:51:20;10.50;58.60
29201;DHT22;16244;51.956;12.980;2024-03-17T10:53:48;10.90;60.80
29201;DHT22;16244;51.956;12.980;2024-03-17T10:56:20;11.20;55.80
29201;DHT22;16244;51.956;12.980;2024-03-17T10:58:50;11.90;57.60
29201;DHT22;16244;51.956;12.980;2024-03-17T11:01:24;12.60;55.20
29201;DHT22;16244;51.956;12.980;2024-03-17T11:03:52;11.10;53.70
29201;DHT22;16244;51.956;12.980;2024-03-17T11:06:21;10.60;58.90
29201;DHT22;16244;51.956;12.980;2024-03-17T11:08:50;11.00;58.40
29201;DHT22;16244;51.956;12.980;2024-03-17T11:11:36;11.20;57.50
29201;DHT22;16244;51.956;12.980;2024-03-17T11:14:18;11.20;58.00
29201;DHT22;16244;51.956;12.980;2024-03-17T11:16:47;11.50;60.60
29201;DHT22;16244;51.956;12.980;2024-03-17T11:19:15;11.40;58.60
29201;DHT22;16244;51.956;12.980;2024-03-17T11:21:44;11.10;59.50
29201;DHT22;16244;51.956;12.980;2024-03-17T11:24:20;10.60;59.30
29201;DHT22;16244;51.956;12.980;2024-03-17T11:26:49;10.30;60.90
29201;DHT22;16244;51.956;12.980;2024-03-17T11:29:29;10.10;63.20
29201;DHT22;16244;51.956;12.980;2024-03-17T11:32:00;10.10;59.30
29201;DHT22;16244;51.956;12.980;2024-03-17T11:34:30;9.90;60.40
29201;DHT22;16244;51.956;12.980;2024-03-17T11:36:59;9.50;61.40
29201;DHT22;16244;51.956;12.980;2024-03-17T11:39:53;9.30;63.00
29201;DHT22;16244;51.956;12.980;2024-03-17T11:42:23;9.30;61.20
29201;DHT22;16244;51.956;12.980;2024-03-17T11:44:57;9.20;61.20
29201;DHT22;16244;51.956;12.980;2024-03-17T11:47:34;9.10;61.60
29201;DHT22;16244;51.956;12.980;2024-03-17T11:50:04;9.20;63.00
29201;DHT22;16244;51.956;12.980;2024-03-17T11:52:31;9.10;61.10
29201;DHT22;16244;51.956;12.980;2024-03-17T11:54:58;9.30;63.70
29201;DHT22;16244;51.956;12.980;2024-03-17T11:57:26;9.50;62.50
29201;DHT22;16244;51.956;12.980;2024-03-17T11:59:55;9.50;62.80
29201;DHT22;16244;51.956;12.980;2024-03-17T12:02:24;9.60;61.60
29201;DHT22;16244;51.956;12.980;2024-03-17T12:04:56;9.50;63.30
29201;DHT22;16244;51.956;12.980;2024-03-17T12:07:24;9.50;64.00
29201;DHT22;16244;51.956;12.980;2024-03-17T12:09:54;9.70;61.70
29201;DHT22;16244;51.956;12.980;2024-03-17T12:12:25;9.30;61.90
29201;DHT22;16244;51.956;12.980;2024-03-17T12:15:01;9.20;62.80
29201;DHT22;16244;51.956;12.980;2024-03-17T12:17:29;9.20;62.80
29201;DHT22;16244;51.956;12.980;2024-03-17T12:19:57;9.10;61.60
29201;DHT22;16244;51.956;12.980;2024-03-17T12:22:25;9.20;62.40
29201;DHT22;16244;51.956;12.980;2024-03-17T12:24:55;9.10;59.10
29201;DHT22;16244;51.956;12.980;2024-03-17T12:27:22;9.30;61.00
29201;DHT22;16244;51.956;12.980;2024-03-17T12:29:51;9.20;58.60
29201;DHT22;16244;51.956;12.980;2024-03-17T12:32:19;9.10;60.60
29201;DHT22;16244;51.956;12.980;2024-03-17T12:34:49;9.10;59.20
29201;DHT22;16244;51.956;12.980;2024-03-17T12:37:20;9.00;60.20
29201;DHT22;16244;51.956;12.980;2024-03-17T12:39:47;9.10;61.70
29201;DHT22;16244;51.956;12.980;2024-03-17T12:42:16;9.20;61.60
29201;DHT22;16244;51.956;12.980;2024-03-17T12:44:47;9.30;61.60
29201;DHT22;16244;51.956;12.980;2024-03-17T12:47:16;9.60;64.90
29201;DHT22;16244;51.956;12.980;2024-03-17T12:49:47;9.90;63.10
29201;DHT22;16244;51.956;12.980;2024-03-17T12:52:20;9.80;61.60
29201;DHT22;16244;51.956;12.980;2024-03-17T12:54:56;10.10;62.40
29201;DHT22;16244;51.956;12.980;2024-03-17T12:57:44;10.00;60.70
29201;DHT22;16244;51.956;12.980;2024-03-17T13:00:44;10.00;60.90
29201;DHT22;16244;51.956;12.980;2024-03-17T13:03:23;10.20;61.80
29201;DHT22;16244;51.956;12.980;2024-03-17T13:05:51;10.30;61.00
29201;DHT22;16244;51.956;12.980;2024-03-17T13:08:20;10.30;58.70
29201;DHT22;16244;51.956;12.980;2024-03-17T13:10:48;10.10;58.90
29201;DHT22;16244;51.956;12.980;2024-03-17T13:13:15;10.00;59.40
29201;DHT22;16244;51.956;12.980;2024-03-17T13:15:43;9.80;58.70
29201;DHT22;16244;51.956;12.980;2024-03-17T13:18:16;9.90;61.90
29201;DHT22;16244;51.956;12.980;2024-03-17T13:20:45;9.90;59.30
29201;DHT22;16244;51.956;12.980;2024-03-17T13:23:13;9.80;60.40
29201;DHT22;16244;51.956;12.980;2024-03-17T13:25:42;9.70;58.00
29201;DHT22;16244;51.956;12.980;2024-03-17T13:28:11;9.70;60.00
29201;DHT22;16244;51.956;12.980;2024-03-17T13:30:39;9.70;58.60
29201;DHT22;16244;51.956;12.980;2024-03-17T13:33:07;9.70;60.60
29201;DHT22;16244;51.956;12.980;2024-03-17T13:35:37;9.70;59.90
29201;DHT22;16244;51.956;12.980;2024-03-17T13:38:06;9.60;58.80
29201;DHT22;16244;51.956;12.980;2024-03-17T13:40:34;9.60;58.50
29201;DHT22;16244;51.956;12.980;2024-03-17T13:43:03;9.60;59.40
29201;DHT22;16244;51.956;12.980;2024-03-17T13:45:38;9.70;58.60
29201;DHT22;16244;51.956;12.980;2024-03-17T13:48:07;9.60;58.70
29201;DHT22;16244;51.956;12.980;2024-03-17T13:50:37;9.60;58.20
29201;DHT22;16244;51.956;12.980;2024-03-17T13:53:10;9.50;57.90
29201;DHT22;16244;51.956;12.980;2024-03-17T13:55:38;9.50;57.40
29201;DHT22;16244;51.956;12.980;2024-03-17T13:58:09;9.70;57.70
29201;DHT22;16244;51.956;12.980;2024-03-17T14:00:38;9.70;55.60
29201;DHT22;16244;51.956;12.980;2024-03-17T14:03:08;9.60;56.70
29201;DHT22;16244;51.956;12.980;2024-03-17T14:05:36;9.60;58.80
29201;DHT22;16244;51.956;12.980;2024-03-17T14:08:04;9.70;58.80
29201;DHT22;16244;51.956;12.980;2024-03-17T14:10:32;9.70;57.50
29201;DHT22;16244;51.956;12.980;2024-03-17T14:13:01;9.70;58.10
29201;DHT22;16244;51.956;12.980;2024-03-17T14:15:30;9.70;57.80
29201;DHT22;16244;51.956;12.980;2024-03-17T14:17:58;9.70;58.50
29201;DHT22;16244;51.956;12.980;2024-03-17T14:20:25;9.70;57.50
29201;DHT22;16244;51.956;12.980;2024-03-17T14:22:53;9.70;55.10
29201;DHT22;16244;51.956;12.980;2024-03-17T14:25:23;9.80;55.60
29201;DHT22;16244;51.956;12.980;2024-03-17T14:27:52;9.90;56.90
29201;DHT22;16244;51.956;12.980;2024-03-17T14:30:19;10.00;58.80
29201;DHT22;16244;51.956;12.980;2024-03-17T14:32:48;10.00;56.60
29201;DHT22;16244;51.956;12.980;2024-03-17T14:35:18;10.00;56.40
29201;DHT22;16244;51.956;12.980;2024-03-17T14:37:47;10.00;56.90
29201;DHT22;16244;51.956;12.980;2024-03-17T14:40:16;10.00;56.90
29201;DHT22;16244;51.956;12.980;2024-03-17T14:42:48;9.90;57.30
29201;DHT22;16244;51.956;12.980;2024-03-17T14:45:17;9.90;57.00
29201;DHT22;16244;51.956;12.980;2024-03-17T14:47:45;9.90;57.40
29201;DHT22;16244;51.956;12.980;2024-03-17T14:50:13;9.90;57.20
29201;DHT22;16244;51.956;12.980;2024-03-17T14:52:42;9.80;56.10
29201;DHT22;16244;51.956;12.980;2024-03-17T14:55:10;9.80;55.30
29201;DHT22;16244;51.956;12.980;2024-03-17T14:57:38;9.80;55.70
29201;DHT22;16244;51.956;12.980;2024-03-17T15:00:09;9.80;56.00
29201;DHT22;16244;51.956;12.980;2024-03-17T15:02:42;9.90;56.50
29201;DHT22;16244;51.956;12.980;2024-03-17T15:05:10;9.90;55.60
29201;DHT22;16244;51.956;12.980;2024-03-17T15:07:39;9.90;56.20
29201;DHT22;16244;51.956;12.980;2024-03-17T15:10:07;9.90;55.60
29201;DHT22;16244;51.956;12.980;2024-03-17T15:12:35;9.80;55.30
29201;DHT22;16244;51.956;12.980;2024-03-17T15:15:03;9.80;56.60
29201;DHT22;16244;51.956;12.980;2024-03-17T15:17:30;9.80;56.50
29201;DHT22;16244;51.956;12.980;2024-03-17T15:19:59;9.80;57.60
29201;DHT22;16244;51.956;12.980;2024-03-17T15:22:28;9.70;57.40
29201;DHT22;16244;51.956;12.980;2024-03-17T15:24:56;9.70;57.50
29201;DHT22;16244;51.956;12.980;2024-03-17T15:27:24;9.60;58.10
29201;DHT22;16244;51.956;12.980;2024-03-17T15:29:52;9.80;59.00
29201;DHT22;16244;51.956;12.980;2024-03-17T15:32:19;9.80;57.60
29201;DHT22;16244;51.956;12.980;2024-03-17T15:34:47;9.90;56.50
29201;DHT22;16244;51.956;12.980;2024-03-17T15:37:15;9.90;55.90
29201;DHT22;16244;51.956;12.980;2024-03-17T15:39:43;9.80;57.00